createdAt,value
2022-08-25T00:00:45.156Z,101171.23
2022-08-25T00:03:44.105Z,101178.20
2022-08-25T00:06:40.709Z,101172.42
2022-08-25T00:09:35.704Z,101172.76
2022-08-25T00:12:33.383Z,101176.70
2022-08-25T00:15:33.845Z,101176.10
2022-08-25T00:18:28.401Z,101178.20
2022-08-25T00:21:22.477Z,101173.75
2022-08-25T00:24:19.788Z,101168.14
2022-08-25T00:27:16.902Z,101168.91
2022-08-25T00:30:15.855Z,101169.73
2022-08-25T00:33:12.089Z,101164.98
2022-08-25T00:36:07.887Z,101155.96
2022-08-25T00:39:01.530Z,101165.12
2022-08-25T00:41:56.559Z,101171.20
2022-08-25T00:44:53.163Z,101175.32
2022-08-25T00:47:53.592Z,101185.41
2022-08-25T00:50:50.207Z,101187.77
2022-08-25T00:53:45.038Z,101191.85
2022-08-25T00:56:42.601Z,101191.73
2022-08-25T00:59:36.718Z,101190.86
2022-08-25T01:02:30.463Z,101188.22
2022-08-25T01:05:42.151Z,101183.39
2022-08-25T01:08:54.282Z,101179.80
2022-08-25T01:11:55.074Z,101181.45
2022-08-25T01:15:02.792Z,101183.55
2022-08-25T01:18:02.290Z,101179.73
2022-08-25T01:20:55.484Z,101178.91
2022-08-25T01:23:52.802Z,101170.45
2022-08-25T01:26:47.922Z,101172.02
2022-08-25T01:29:42.937Z,101179.14
2022-08-25T01:32:37.225Z,101173.71
2022-08-25T01:35:31.250Z,101172.43
2022-08-25T01:38:26.114Z,101180.23
2022-08-25T01:41:23.829Z,101172.64
2022-08-25T01:44:19.889Z,101162.05
2022-08-25T01:47:17.147Z,101159.20
2022-08-25T01:50:13.993Z,101156.55
2022-08-25T01:53:16.005Z,101152.84
2022-08-25T01:56:15.868Z,101152.42
2022-08-25T01:59:10.610Z,101151.08
2022-08-25T02:02:04.745Z,101147.15
2022-08-25T02:05:02.604Z,101141.05
2022-08-25T02:07:59.742Z,101141.25
2022-08-25T02:10:56.790Z,101140.21
2022-08-25T02:13:50.613Z,101139.94
2022-08-25T02:16:47.302Z,101134.75
2022-08-25T02:19:43.585Z,101130.90
2022-08-25T02:22:35.498Z,101131.98
2022-08-25T02:25:29.990Z,101131.31
2022-08-25T02:28:24.976Z,101135.52
2022-08-25T02:31:20.190Z,101139.85
2022-08-25T02:34:16.082Z,101147.67
2022-08-25T02:37:10.428Z,101152.30
2022-08-25T02:40:05.931Z,101152.96
2022-08-25T02:43:00.331Z,101149.17
2022-08-25T02:45:55.154Z,101143.60
2022-08-25T02:48:52.049Z,101138.08
2022-08-25T02:51:49.321Z,101132.55
2022-08-25T02:54:44.240Z,101128.02
2022-08-25T02:57:39.637Z,101134.25
2022-08-25T03:00:34.090Z,101141.04
2022-08-25T03:03:29.846Z,101143.39
2022-08-25T03:06:27.423Z,101154.65
2022-08-25T03:09:24.269Z,101172.75
2022-08-25T03:12:18.753Z,101188.95
2022-08-25T03:15:21.136Z,101176.92
2022-08-25T03:18:16.635Z,101160.75
2022-08-25T03:21:13.790Z,101158.94
2022-08-25T03:24:11.636Z,101177.66
2022-08-25T03:27:07.897Z,101193.66
2022-08-25T03:30:04.638Z,101189.45
2022-08-25T03:32:57.803Z,101182.20
2022-08-25T03:35:54.045Z,101181.83
2022-08-25T03:38:48.844Z,101182.03
2022-08-25T03:41:42.602Z,101185.45
2022-08-25T03:44:44.068Z,101196.91
2022-08-25T03:47:37.182Z,101206.07
2022-08-25T03:50:32.325Z,101224.90
2022-08-25T03:53:27.093Z,101232.95
2022-08-25T03:56:23.765Z,101236.77
2022-08-25T03:59:18.283Z,101228.83
2022-08-25T04:02:13.854Z,101220.33
2022-08-25T04:05:12.952Z,101210.55
2022-08-25T04:08:12.582Z,101210.11
2022-08-25T04:11:13.209Z,101209.41
2022-08-25T04:14:16.548Z,101206.44
2022-08-25T04:17:16.839Z,101196.95
2022-08-25T04:20:20.585Z,101189.87
2022-08-25T04:23:15.100Z,101187.05
2022-08-25T04:26:14.698Z,101188.95
2022-08-25T04:29:10.957Z,101197.88
2022-08-25T04:32:06.480Z,101206.46
2022-08-25T04:34:59.544Z,101208.70
2022-08-25T04:37:52.635Z,101208.15
2022-08-25T04:40:46.723Z,101187.63
2022-08-25T04:43:41.399Z,101167.77
2022-08-25T04:46:39.626Z,101177.40
2022-08-25T04:49:35.597Z,101173.94
2022-08-25T04:52:33.795Z,101168.63
2022-08-25T04:55:33.713Z,101158.71
2022-08-25T04:58:28.395Z,101157.23
2022-08-25T05:01:31.395Z,101159.78
2022-08-25T05:04:29.082Z,101152.04
2022-08-25T05:07:38.160Z,101139.30
2022-08-25T05:10:55.638Z,101144.52
2022-08-25T05:13:57.102Z,101158.09
2022-08-25T05:17:01.415Z,101169.84
2022-08-25T05:19:59.676Z,101170.34
2022-08-25T05:22:55.767Z,101167.94
2022-08-25T05:25:49.576Z,101166.65
2022-08-25T05:28:51.348Z,101167.16
2022-08-25T05:31:50.794Z,101169.15
2022-08-25T05:34:53.170Z,101166.88
2022-08-25T05:37:57.627Z,101159.35
2022-08-25T05:40:58.792Z,101157.36
2022-08-25T05:43:52.872Z,101155.14
2022-08-25T05:46:47.791Z,101152.63
2022-08-25T05:49:44.830Z,101148.98
2022-08-25T05:52:57.200Z,101151.80
2022-08-25T05:55:58.576Z,101156.04
2022-08-25T05:58:59.184Z,101152.83
2022-08-25T06:02:16.542Z,101146.80
2022-08-25T06:05:16.885Z,101145.02
2022-08-25T06:08:16.215Z,101142.25
2022-08-25T06:11:15.130Z,101149.01
2022-08-25T06:14:15.164Z,101150.13
2022-08-25T06:17:15.823Z,101153.67
2022-08-25T06:20:25.454Z,101149.03
2022-08-25T06:23:39.196Z,101153.02
2022-08-25T06:26:46.101Z,101159.67
2022-08-25T06:29:46.007Z,101167.41
2022-08-25T06:32:51.196Z,101169.60
2022-08-25T06:35:50.154Z,101174.66
2022-08-25T06:38:51.169Z,101176.36
2022-08-25T06:41:47.263Z,101173.05
2022-08-25T06:44:45.616Z,101178.29
2022-08-25T06:47:49.112Z,101182.06
2022-08-25T06:50:52.895Z,101181.49
2022-08-25T06:53:54.503Z,101181.38
2022-08-25T06:56:49.676Z,101182.24
2022-08-25T06:59:59.611Z,101175.99
2022-08-25T07:03:02.095Z,101168.94
2022-08-25T07:06:04.087Z,101170.96
2022-08-25T07:09:10.237Z,101169.98
2022-08-25T07:12:11.253Z,101175.58
2022-08-25T07:15:20.398Z,101177.11
2022-08-25T07:18:24.913Z,101171.34
2022-08-25T07:21:32.649Z,101171.95
2022-08-25T07:24:36.977Z,101167.30
2022-08-25T07:27:37.092Z,101163.22
2022-08-25T07:30:41.241Z,101163.66
2022-08-25T07:34:05.508Z,101168.48
2022-08-25T07:37:23.795Z,101167.48
2022-08-25T07:40:32.692Z,101165.67
2022-08-25T07:43:38.193Z,101169.39
2022-08-25T07:46:40.743Z,101167.75
2022-08-25T07:49:45.549Z,101166.14
2022-08-25T07:52:52.277Z,101166.60
2022-08-25T07:56:00.117Z,101166.76
2022-08-25T07:59:08.375Z,101173.44
2022-08-25T08:02:19.477Z,101180.61
2022-08-25T08:05:24.984Z,101184.16
2022-08-25T08:08:20.585Z,101184.23
2022-08-25T08:11:20.229Z,101182.18
2022-08-25T08:14:24.231Z,101178.23
2022-08-25T08:17:38.271Z,101175.55
2022-08-25T08:20:43.384Z,101170.52
2022-08-25T08:23:38.924Z,101164.44
2022-08-25T08:26:58.333Z,101163.17
2022-08-25T08:30:04.241Z,101165.02
2022-08-25T08:33:16.504Z,101170.02
2022-08-25T08:36:18.844Z,101175.14
2022-08-25T08:39:22.352Z,101174.63
2022-08-25T08:42:49.591Z,101173.67
2022-08-25T08:45:58.794Z,101175.50
2022-08-25T08:49:06.030Z,101172.95
2022-08-25T08:52:12.361Z,101174.92
2022-08-25T08:55:17.039Z,101174.77
2022-08-25T08:58:39.273Z,101175.40
2022-08-25T09:01:53.231Z,101177.58
2022-08-25T09:05:05.322Z,101173.35
2022-08-25T09:08:06.466Z,101172.45
2022-08-25T09:11:18.842Z,101174.15
2022-08-25T09:14:30.417Z,101178.67
2022-08-25T09:17:54.816Z,101175.55
2022-08-25T09:21:05.052Z,101174.27
2022-08-25T09:24:28.964Z,101164.14
2022-08-25T09:27:35.062Z,101157.61
2022-08-25T09:30:45.085Z,101157.24
2022-08-25T09:33:47.470Z,101156.37
2022-08-25T09:36:48.843Z,101157.65
2022-08-25T09:39:57.489Z,101158.93
2022-08-25T09:43:00.797Z,101157.53
2022-08-25T09:46:03.987Z,101151.98
2022-08-25T09:49:18.987Z,101147.80
2022-08-25T09:52:36.486Z,101147.77
2022-08-25T09:55:40.360Z,101145.38
2022-08-25T09:58:49.235Z,101140.91
2022-08-25T10:01:56.117Z,101135.64
2022-08-25T10:04:55.079Z,101136.92
2022-08-25T10:08:02.345Z,101131.55
2022-08-25T10:11:12.165Z,101132.80
2022-08-25T10:14:28.367Z,101134.85
2022-08-25T10:17:34.186Z,101133.04
2022-08-25T10:20:44.721Z,101128.34
2022-08-25T10:23:57.099Z,101128.02
2022-08-25T10:27:05.538Z,101128.75
2022-08-25T10:30:21.316Z,101121.63
2022-08-25T10:33:37.369Z,101121.48
2022-08-25T10:36:57.336Z,101120.96
2022-08-25T10:40:17.399Z,101120.67
2022-08-25T10:43:33.606Z,101116.95
2022-08-25T10:46:43.743Z,101112.02
2022-08-25T10:49:49.952Z,101107.27
2022-08-25T10:53:00.508Z,101104.88
2022-08-25T10:56:07.585Z,101098.61
2022-08-25T10:59:29.994Z,101092.05
2022-08-25T11:03:16.397Z,101086.15
2022-08-25T11:06:30.743Z,101088.88
2022-08-25T11:09:44.579Z,101084.21
2022-08-25T11:12:54.388Z,101083.88
2022-08-25T11:16:19.273Z,101090.89
2022-08-25T11:19:24.387Z,101092.56
2022-08-25T11:22:33.428Z,101088.70
2022-08-25T11:25:46.411Z,101082.91
2022-08-25T11:28:56.096Z,101076.39
2022-08-25T11:32:05.127Z,101072.10
2022-08-25T11:35:19.999Z,101068.80
2022-08-25T11:38:36.405Z,101070.88
2022-08-25T11:41:59.370Z,101061.97
2022-08-25T11:45:16.403Z,101056.02
2022-08-25T11:48:31.392Z,101053.55
2022-08-25T11:51:36.325Z,101050.75
2022-08-25T11:54:39.180Z,101041.67
2022-08-25T11:57:43.573Z,101037.77
2022-08-25T12:00:47.392Z,101043.25
2022-08-25T12:04:20.501Z,101037.90
2022-08-25T12:07:30.484Z,101037.97
2022-08-25T12:11:11.852Z,101041.11
2022-08-25T12:14:57.396Z,101034.09
2022-08-25T12:18:28.410Z,101028.84
2022-08-25T12:21:47.435Z,101026.23
2022-08-25T12:25:01.913Z,101027.73
2022-08-25T12:28:16.268Z,101028.05
2022-08-25T12:32:09.519Z,101030.70
2022-08-25T12:35:36.192Z,101018.35
2022-08-25T12:38:34.997Z,101018.77
2022-08-25T12:41:38.799Z,101021.08
2022-08-25T12:44:46.250Z,101017.25
2022-08-25T12:47:50.302Z,101016.52
2022-08-25T12:50:52.160Z,101011.23
2022-08-25T12:54:30.475Z,101005.75
2022-08-25T12:57:51.691Z,101000.08
2022-08-25T13:01:35.249Z,100999.86
2022-08-25T13:05:05.468Z,101001.34
2022-08-25T13:08:53.574Z,100998.62
2022-08-25T13:12:25.446Z,100993.78
2022-08-25T13:15:44.746Z,100994.40
2022-08-25T13:19:04.484Z,100989.57
2022-08-25T13:22:21.488Z,100987.09
2022-08-25T13:25:35.292Z,100984.84
2022-08-25T13:28:50.271Z,100990.03
2022-08-25T13:32:04.312Z,100979.82
2022-08-25T13:35:17.778Z,100978.29
2022-08-25T13:38:33.232Z,100977.54
2022-08-25T13:41:43.961Z,100977.65
2022-08-25T13:44:56.220Z,100974.84
2022-08-25T13:47:59.605Z,100977.20
2022-08-25T13:51:00.365Z,100977.69
2022-08-25T13:54:04.127Z,100970.38
2022-08-25T13:57:19.500Z,100972.95
2022-08-25T14:00:47.270Z,100970.76
2022-08-25T14:03:55.687Z,100969.45
2022-08-25T14:07:38.475Z,100970.91
2022-08-25T14:10:46.534Z,100963.14
2022-08-25T14:13:56.729Z,100958.14
2022-08-25T14:17:28.792Z,100950.91
2022-08-25T14:20:41.744Z,100951.08
2022-08-25T14:23:55.539Z,100950.45
2022-08-25T14:27:00.311Z,100945.80
2022-08-25T14:30:04.359Z,100940.44
2022-08-25T14:33:17.509Z,100939.73
2022-08-25T14:36:27.200Z,100934.36
2022-08-25T14:39:45.048Z,100929.69
2022-08-25T14:42:48.355Z,100931.09
2022-08-25T14:45:46.564Z,100926.27
2022-08-25T14:48:57.898Z,100928.75
2022-08-25T14:52:01.556Z,100931.98
2022-08-25T14:55:12.517Z,100926.98
2022-08-25T14:58:51.123Z,100929.90
2022-08-25T15:02:15.569Z,100925.02
2022-08-25T15:05:39.801Z,100923.36
2022-08-25T15:09:12.069Z,100922.87
2022-08-25T15:12:44.116Z,100921.34
2022-08-25T15:15:52.646Z,100917.84
2022-08-25T15:19:06.981Z,100915.29
2022-08-25T15:22:10.748Z,100915.00
2022-08-25T15:25:28.601Z,100918.55
2022-08-25T15:28:35.856Z,100917.73
2022-08-25T15:31:39.506Z,100916.01
2022-08-25T15:34:40.502Z,100915.45
2022-08-25T15:37:49.607Z,100914.77
2022-08-25T15:40:49.603Z,100916.26
2022-08-25T15:44:05.512Z,100911.16
2022-08-25T15:47:12.504Z,100915.41
2022-08-25T15:50:12.435Z,100914.20
2022-08-25T15:53:10.732Z,100911.02
2022-08-25T15:56:26.755Z,100905.87
2022-08-25T15:59:29.588Z,100899.84
2022-08-25T16:02:33.117Z,100896.17
2022-08-25T16:05:33.586Z,100893.70
2022-08-25T16:08:37.887Z,100896.64
2022-08-25T16:11:45.589Z,100885.41
2022-08-25T16:15:00.578Z,100887.45
2022-08-25T16:18:05.674Z,100880.98
2022-08-25T16:21:15.742Z,100875.84
2022-08-25T16:24:12.425Z,100870.56
2022-08-25T16:27:15.657Z,100865.00
2022-08-25T16:30:26.632Z,100865.21
2022-08-25T16:33:32.601Z,100860.10
2022-08-25T16:36:39.938Z,100861.12
2022-08-25T16:39:40.033Z,100856.67
2022-08-25T16:42:51.728Z,100855.65
2022-08-25T16:46:03.328Z,100856.84
2022-08-25T16:49:06.431Z,100860.45
2022-08-25T16:52:30.430Z,100862.84
2022-08-25T16:55:42.522Z,100865.58
2022-08-25T16:58:44.632Z,100862.23
2022-08-25T17:01:49.662Z,100862.77
2022-08-25T17:04:56.614Z,100864.30
2022-08-25T17:08:23.888Z,100866.25
2022-08-25T17:11:42.628Z,100869.63
2022-08-25T17:14:41.829Z,100864.36
2022-08-25T17:17:51.079Z,100862.98
2022-08-25T17:20:52.629Z,100864.95
2022-08-25T17:23:51.516Z,100865.69
2022-08-25T17:26:51.558Z,100860.58
2022-08-25T17:29:59.849Z,100863.26
2022-08-25T17:33:02.019Z,100866.80
2022-08-25T17:36:06.646Z,100870.14
2022-08-25T17:39:22.129Z,100869.92
2022-08-25T17:42:26.785Z,100871.04
2022-08-25T17:45:39.500Z,100868.52
2022-08-25T17:48:43.808Z,100871.77
2022-08-25T17:51:53.798Z,100873.71
2022-08-25T17:54:58.867Z,100879.42
2022-08-25T17:58:07.682Z,100881.45
2022-08-25T18:01:05.396Z,100883.78
2022-08-25T18:04:07.647Z,100884.86
2022-08-25T18:07:36.692Z,100885.02
2022-08-25T18:10:49.094Z,100884.80
2022-08-25T18:13:58.701Z,100890.09
2022-08-25T18:17:09.659Z,100895.41
2022-08-25T18:20:10.800Z,100890.25
2022-08-25T18:23:15.615Z,100892.15
2022-08-25T18:26:15.151Z,100892.03
2022-08-25T18:29:19.667Z,100895.02
2022-08-25T18:32:19.589Z,100893.23
2022-08-25T18:35:35.731Z,100892.27
2022-08-25T18:39:06.406Z,100894.38
2022-08-25T18:42:17.720Z,100890.46
2022-08-25T18:45:26.859Z,100894.11
2022-08-25T18:48:33.091Z,100892.31
2022-08-25T18:51:48.054Z,100893.50
2022-08-25T18:55:01.574Z,100894.27
2022-08-25T18:57:56.840Z,100891.90
2022-08-25T19:01:10.724Z,100893.96
2022-08-25T19:04:31.652Z,100891.62
2022-08-25T19:07:37.494Z,100888.39
2022-08-25T19:10:37.285Z,100887.92
2022-08-25T19:13:45.990Z,100888.04
2022-08-25T19:16:59.496Z,100887.47
2022-08-25T19:20:10.958Z,100884.88
2022-08-25T19:23:17.803Z,100885.20
2022-08-25T19:26:31.244Z,100888.55
2022-08-25T19:29:40.125Z,100887.83
2022-08-25T19:32:53.251Z,100885.21
2022-08-25T19:35:56.698Z,100887.59
2022-08-25T19:39:12.562Z,100888.16
2022-08-25T19:42:32.728Z,100884.02
2022-08-25T19:45:43.705Z,100880.83
2022-08-25T19:48:52.754Z,100881.27
2022-08-25T19:51:55.446Z,100877.92
2022-08-25T19:55:05.501Z,100874.96
2022-08-25T19:58:10.558Z,100877.33
2022-08-25T20:01:08.526Z,100877.71
2022-08-25T20:04:16.748Z,100878.26
2022-08-25T20:07:28.712Z,100875.11
2022-08-25T20:10:41.894Z,100880.64
2022-08-25T20:13:45.555Z,100876.73
2022-08-25T20:16:45.372Z,100878.49
2022-08-25T20:19:47.763Z,100875.69
2022-08-25T20:22:59.786Z,100874.77
2022-08-25T20:25:56.086Z,100875.85
2022-08-25T20:28:52.899Z,100875.81
2022-08-25T20:32:06.568Z,100870.46
2022-08-25T20:35:14.592Z,100877.43
2022-08-25T20:38:21.771Z,100879.45
2022-08-25T20:41:26.685Z,100878.67
2022-08-25T20:44:42.104Z,100881.55
2022-08-25T20:47:51.462Z,100882.23
2022-08-25T20:50:57.274Z,100884.18
2022-08-25T20:53:56.652Z,100886.90
2022-08-25T20:56:54.567Z,100884.77
2022-08-25T20:59:59.262Z,100880.45
2022-08-25T21:03:05.332Z,100883.52
2022-08-25T21:06:17.159Z,100881.04
2022-08-25T21:09:20.559Z,100876.54
2022-08-25T21:12:19.216Z,100878.16
2022-08-25T21:15:25.483Z,100878.21
2022-08-25T21:18:35.850Z,100876.08
2022-08-25T21:21:32.172Z,100878.21
2022-08-25T21:24:37.765Z,100876.23
2022-08-25T21:27:38.897Z,100881.52
2022-08-25T21:30:39.085Z,100878.89
2022-08-25T21:33:41.373Z,100883.59
2022-08-25T21:36:42.409Z,100884.98
2022-08-25T21:39:40.852Z,100884.03
2022-08-25T21:42:41.801Z,100877.64
2022-08-25T21:45:46.492Z,100878.92
2022-08-25T21:48:47.426Z,100881.29
2022-08-25T21:51:59.293Z,100881.34
2022-08-25T21:54:59.844Z,100883.46
2022-08-25T21:58:05.801Z,100880.08
2022-08-25T22:01:15.882Z,100874.16
2022-08-25T22:04:18.641Z,100874.86
2022-08-25T22:07:20.820Z,100873.86
2022-08-25T22:10:22.801Z,100870.59
2022-08-25T22:13:25.571Z,100872.95
2022-08-25T22:16:25.136Z,100869.89
2022-08-25T22:19:19.376Z,100872.64
2022-08-25T22:22:20.828Z,100871.45
2022-08-25T22:25:23.772Z,100868.59
2022-08-25T22:28:24.145Z,100870.21
2022-08-25T22:31:34.874Z,100870.01
2022-08-25T22:34:30.616Z,100867.82
2022-08-25T22:37:35.163Z,100866.49
2022-08-25T22:40:29.883Z,100858.51
2022-08-25T22:43:25.721Z,100857.01
2022-08-25T22:46:20.894Z,100855.93
2022-08-25T22:49:17.446Z,100852.66
2022-08-25T22:52:15.296Z,100847.96
2022-08-25T22:55:22.469Z,100843.39
2022-08-25T22:58:16.764Z,100841.05
2022-08-25T23:01:19.132Z,100836.96
2022-08-25T23:04:15.572Z,100834.52
2022-08-25T23:07:14.803Z,100830.63
2022-08-25T23:10:21.424Z,100826.20
2022-08-25T23:13:33.746Z,100828.25
2022-08-25T23:16:35.658Z,100826.38
2022-08-25T23:19:30.739Z,100825.84
2022-08-25T23:22:24.421Z,100823.52
2022-08-25T23:25:25.147Z,100821.23
2022-08-25T23:28:20.561Z,100818.23
2022-08-25T23:31:15.428Z,100820.63
2022-08-25T23:34:09.232Z,100822.50
2022-08-25T23:37:06.912Z,100826.83
2022-08-25T23:40:10.892Z,100827.21
2022-08-25T23:43:05.444Z,100826.92
2022-08-25T23:46:00.589Z,100826.98
2022-08-25T23:48:57.732Z,100825.20
2022-08-25T23:51:55.100Z,100824.09
2022-08-25T23:54:47.473Z,100821.00
2022-08-25T23:57:41.844Z,100820.30
